createdAt,value
2019-04-28T00:00:15.865Z,99.99
2019-04-28T00:01:14.829Z,99.99
2019-04-28T00:02:15.913Z,99.99
2019-04-28T00:03:14.820Z,99.99
2019-04-28T00:04:14.983Z,99.99
2019-04-28T00:05:14.798Z,99.72
2019-04-28T00:06:14.901Z,99.72
2019-04-28T00:07:14.785Z,99.99
2019-04-28T00:08:14.915Z,99.99
2019-04-28T00:09:14.797Z,99.99
2019-04-28T00:10:14.797Z,99.99
2019-04-28T00:11:14.723Z,99.99
2019-04-28T00:12:14.847Z,99.93
2019-04-28T00:13:14.760Z,99.82
2019-04-28T00:14:14.967Z,99.99
2019-04-28T00:15:14.692Z,99.99
2019-04-28T00:16:15.826Z,99.99
2019-04-28T00:17:14.675Z,99.99
2019-04-28T00:18:14.802Z,99.99
2019-04-28T00:19:14.687Z,99.99
2019-04-28T00:20:14.756Z,99.99
2019-04-28T00:21:14.612Z,99.99
2019-04-28T00:22:15.795Z,99.99
2019-04-28T00:23:14.625Z,99.99
2019-04-28T00:24:14.774Z,99.93
2019-04-28T00:25:14.571Z,99.99
2019-04-28T00:26:14.737Z,99.82
2019-04-28T00:27:14.556Z,99.99
2019-04-28T00:28:14.641Z,99.99
2019-04-28T00:29:14.615Z,99.99
2019-04-28T00:30:14.657Z,99.41
2019-04-28T00:31:14.517Z,99.99
2019-04-28T00:32:14.671Z,99.99
2019-04-28T00:33:14.527Z,99.99
2019-04-28T00:34:14.593Z,99.99
2019-04-28T00:35:14.483Z,99.99
2019-04-28T00:36:14.558Z,99.99
2019-04-28T00:37:14.472Z,99.72
2019-04-28T00:38:14.456Z,99.99
2019-04-28T00:39:14.554Z,99.99
2019-04-28T00:40:16.595Z,99.99
2019-04-28T00:41:14.460Z,99.99
2019-04-28T00:42:14.550Z,99.93
2019-04-28T00:43:14.413Z,99.99
2019-04-28T00:44:14.459Z,99.99
2019-04-28T00:45:14.402Z,99.99
2019-04-28T00:46:14.466Z,99.99
2019-04-28T00:47:14.376Z,99.99
2019-04-28T00:48:16.276Z,99.99
2019-04-28T00:49:14.375Z,99.99
2019-04-28T00:50:14.384Z,99.99
2019-04-28T00:51:14.318Z,99.99
2019-04-28T00:52:14.393Z,99.99
2019-04-28T00:53:14.303Z,99.99
2019-04-28T00:54:14.346Z,99.99
2019-04-28T00:55:15.345Z,99.99
2019-04-28T00:56:15.263Z,99.99
2019-04-28T00:57:15.330Z,99.99
2019-04-28T00:58:14.233Z,99.99
2019-04-28T00:59:14.374Z,99.99
2019-04-28T01:00:14.213Z,99.99
2019-04-28T01:01:14.230Z,99.99
2019-04-28T01:02:14.200Z,99.99
2019-04-28T01:03:14.242Z,99.99
2019-04-28T01:04:14.210Z,99.99
2019-04-28T01:05:14.262Z,99.99
2019-04-28T01:06:14.198Z,99.99
2019-04-28T01:07:14.148Z,99.99
2019-04-28T01:08:14.143Z,99.99
2019-04-28T01:09:15.253Z,99.99
2019-04-28T01:10:14.103Z,99.99
2019-04-28T01:11:15.222Z,99.99
2019-04-28T01:12:14.076Z,99.99
2019-04-28T01:13:14.078Z,99.99
2019-04-28T01:14:14.111Z,99.99
2019-04-28T01:15:14.097Z,99.99
2019-04-28T01:16:14.044Z,99.99
2019-04-28T01:17:14.166Z,99.88
2019-04-28T01:18:14.026Z,99.99
2019-04-28T01:19:14.035Z,99.88
2019-04-28T01:20:14.021Z,99.99
2019-04-28T01:21:15.092Z,99.99
2019-04-28T01:22:14.018Z,99.99
2019-04-28T01:23:14.067Z,99.99
2019-04-28T01:24:13.995Z,99.99
2019-04-28T01:25:13.957Z,99.99
2019-04-28T01:26:13.939Z,99.99
2019-04-28T01:27:15.027Z,99.99
2019-04-28T01:28:13.936Z,99.99
2019-04-28T01:29:13.962Z,99.78
2019-04-28T01:30:13.935Z,99.99
2019-04-28T01:31:13.901Z,99.99
2019-04-28T01:32:13.875Z,99.99
2019-04-28T01:33:21.825Z,99.99
2019-04-28T01:34:13.879Z,99.99
2019-04-28T01:35:13.964Z,99.99
2019-04-28T01:36:13.838Z,99.99
2019-04-28T01:37:13.830Z,99.99
2019-04-28T01:38:13.842Z,99.99
2019-04-28T01:39:13.919Z,99.99
2019-04-28T01:40:13.788Z,99.99
2019-04-28T01:41:13.903Z,99.99
2019-04-28T01:42:13.776Z,99.99
2019-04-28T01:43:13.777Z,99.99
2019-04-28T01:44:13.795Z,99.78
2019-04-28T01:45:13.829Z,99.99
2019-04-28T01:46:13.722Z,99.99
2019-04-28T01:47:14.752Z,99.99
2019-04-28T01:48:13.762Z,99.99
2019-04-28T01:49:14.842Z,99.99
2019-04-28T01:50:13.683Z,99.99
2019-04-28T01:51:13.756Z,99.99
2019-04-28T01:52:13.684Z,99.99
2019-04-28T01:53:13.772Z,99.99
2019-04-28T01:54:13.694Z,99.99
2019-04-28T01:55:13.680Z,99.99
2019-04-28T01:56:13.652Z,99.99
2019-04-28T01:57:13.703Z,99.99
2019-04-28T01:58:13.629Z,99.99
2019-04-28T01:59:13.660Z,99.99
2019-04-28T02:00:23.115Z,99.99
2019-04-28T02:01:14.594Z,99.99
2019-04-28T02:02:13.579Z,99.99
2019-04-28T02:03:13.641Z,99.99
2019-04-28T02:04:13.584Z,99.99
2019-04-28T02:05:14.582Z,99.99
2019-04-28T02:06:13.521Z,99.88
2019-04-28T02:07:14.378Z,99.99
2019-04-28T02:08:13.514Z,99.99
2019-04-28T02:09:14.705Z,99.99
2019-04-28T02:10:13.487Z,99.99
2019-04-28T02:11:13.649Z,99.99
2019-04-28T02:12:13.451Z,99.99
2019-04-28T02:13:14.592Z,99.78
2019-04-28T02:14:13.476Z,99.88
2019-04-28T02:15:13.542Z,99.63
2019-04-28T02:16:13.463Z,99.99
2019-04-28T02:17:13.493Z,99.99
2019-04-28T02:18:13.416Z,99.99
2019-04-28T02:19:13.565Z,99.99
2019-04-28T02:20:13.524Z,99.99
2019-04-28T02:21:13.355Z,99.99
2019-04-28T02:22:13.465Z,99.99
2019-04-28T02:23:13.348Z,99.99
2019-04-28T02:24:13.580Z,99.47
2019-04-28T02:25:13.311Z,99.99
2019-04-28T02:26:13.325Z,99.99
2019-04-28T02:27:13.290Z,99.99
2019-04-28T02:28:13.455Z,99.88
2019-04-28T02:29:13.296Z,99.99
2019-04-28T02:30:13.365Z,99.99
2019-04-28T02:31:13.264Z,99.99
2019-04-28T02:32:13.256Z,99.99
2019-04-28T02:33:13.236Z,99.99
2019-04-28T02:34:13.318Z,99.88
2019-04-28T02:35:13.213Z,99.99
2019-04-28T02:36:13.243Z,99.99
2019-04-28T02:37:13.196Z,99.94
2019-04-28T02:38:13.180Z,99.37
2019-04-28T02:39:13.219Z,99.99
2019-04-28T02:40:13.260Z,99.99
2019-04-28T02:41:13.143Z,99.57
2019-04-28T02:42:13.174Z,99.11
2019-04-28T02:43:13.148Z,99.57
2019-04-28T02:44:13.268Z,99.22
2019-04-28T02:45:13.102Z,99.43
2019-04-28T02:46:13.198Z,99.73
2019-04-28T02:47:13.088Z,99.52
2019-04-28T02:48:13.117Z,99.73
2019-04-28T02:49:13.121Z,99.73
2019-04-28T02:50:13.128Z,99.94
2019-04-28T02:51:13.137Z,99.99
2019-04-28T02:52:13.032Z,99.84
2019-04-28T02:53:13.045Z,99.43
2019-04-28T02:54:13.054Z,98.70
2019-04-28T02:55:13.076Z,99.01
2019-04-28T02:56:13.000Z,99.32
2019-04-28T02:57:13.012Z,99.32
2019-04-28T02:58:13.427Z,98.70
2019-04-28T02:59:13.006Z,98.80
2019-04-28T03:00:13.084Z,98.80
2019-04-28T03:01:22.872Z,99.11
2019-04-28T03:02:13.953Z,99.01
2019-04-28T03:03:12.923Z,99.11
2019-04-28T03:04:12.934Z,98.70
2019-04-28T03:05:12.942Z,98.60
2019-04-28T03:06:12.902Z,98.80
2019-04-28T03:07:14.621Z,98.70
2019-04-28T03:08:12.909Z,98.91
2019-04-28T03:09:12.897Z,99.01
2019-04-28T03:10:12.854Z,98.60
2019-04-28T03:11:12.869Z,98.50
2019-04-28T03:12:12.839Z,98.60
2019-04-28T03:13:13.498Z,98.80
2019-04-28T03:14:12.850Z,98.60
2019-04-28T03:15:12.915Z,98.60
2019-04-28T03:16:12.783Z,98.60
2019-04-28T03:17:12.829Z,98.50
2019-04-28T03:18:12.761Z,98.50
2019-04-28T03:19:12.880Z,98.29
2019-04-28T03:20:12.773Z,97.98
2019-04-28T03:21:12.841Z,98.50
2019-04-28T03:22:12.733Z,98.70
2019-04-28T03:23:14.817Z,98.29
2019-04-28T03:24:13.326Z,98.50
2019-04-28T03:25:13.789Z,99.11
2019-04-28T03:26:12.691Z,98.50
2019-04-28T03:27:14.714Z,99.01
2019-04-28T03:28:12.652Z,99.11
2019-04-28T03:29:13.767Z,98.29
2019-04-28T03:30:13.475Z,99.22
2019-04-28T03:31:36.738Z,99.11
2019-04-28T03:32:30.588Z,99.22
2019-04-28T03:33:18.768Z,99.11
2019-04-28T03:34:13.693Z,98.08
2019-04-28T03:35:13.433Z,98.60
2019-04-28T03:36:15.788Z,98.80
2019-04-28T03:37:12.577Z,98.70
2019-04-28T03:38:12.661Z,98.60
2019-04-28T03:39:12.610Z,98.70
2019-04-28T03:40:12.539Z,98.60
2019-04-28T03:41:12.547Z,98.80
2019-04-28T03:42:12.592Z,98.39
2019-04-28T03:43:14.340Z,98.60
2019-04-28T03:44:13.227Z,98.39
2019-04-28T03:45:12.509Z,98.80
2019-04-28T03:46:12.483Z,99.22
2019-04-28T03:47:12.469Z,98.60
2019-04-28T03:48:12.506Z,98.60
2019-04-28T03:49:12.480Z,99.06
2019-04-28T03:50:12.520Z,98.91
2019-04-28T03:51:13.428Z,99.06
2019-04-28T03:52:12.423Z,98.44
2019-04-28T03:53:12.404Z,98.91
2019-04-28T03:54:12.513Z,98.65
2019-04-28T03:55:12.381Z,98.96
2019-04-28T03:56:12.566Z,99.16
2019-04-28T03:57:12.351Z,99.32
2019-04-28T03:58:12.361Z,99.22
2019-04-28T03:59:12.368Z,99.32
2019-04-28T04:00:12.387Z,99.06
2019-04-28T04:01:12.332Z,98.80
2019-04-28T04:02:12.428Z,98.96
2019-04-28T04:03:12.284Z,99.06
2019-04-28T04:04:13.823Z,99.06
2019-04-28T04:05:12.288Z,99.06
2019-04-28T04:06:12.313Z,99.06
2019-04-28T04:07:13.222Z,99.06
2019-04-28T04:08:12.379Z,98.85
2019-04-28T04:09:12.221Z,99.06
2019-04-28T04:10:12.385Z,98.75
2019-04-28T04:11:12.271Z,98.96
2019-04-28T04:12:12.207Z,99.06
2019-04-28T04:13:13.194Z,98.85
2019-04-28T04:14:12.173Z,99.06
2019-04-28T04:15:13.263Z,98.96
2019-04-28T04:16:12.161Z,99.06
2019-04-28T04:17:12.143Z,99.06
2019-04-28T04:18:12.137Z,98.85
2019-04-28T04:19:14.212Z,99.16
2019-04-28T04:20:12.128Z,98.96
2019-04-28T04:21:12.174Z,98.75
2019-04-28T04:22:12.128Z,98.75
2019-04-28T04:23:12.053Z,99.26
2019-04-28T04:24:12.051Z,99.37
2019-04-28T04:25:13.135Z,98.96
2019-04-28T04:26:12.082Z,98.54
2019-04-28T04:27:12.071Z,99.06
2019-04-28T04:28:12.040Z,98.44
2019-04-28T04:29:12.040Z,98.44
2019-04-28T04:30:11.997Z,98.54
2019-04-28T04:31:12.109Z,99.11
2019-04-28T04:32:22.938Z,99.37
2019-04-28T04:33:12.985Z,99.16
2019-04-28T04:34:12.007Z,98.13
2019-04-28T04:35:11.939Z,99.01
2019-04-28T04:36:12.153Z,99.01
2019-04-28T04:37:12.644Z,98.80
2019-04-28T04:38:11.960Z,98.70
2019-04-28T04:39:11.919Z,98.39
2019-04-28T04:40:13.420Z,98.54
2019-04-28T04:41:11.926Z,98.70
2019-04-28T04:42:12.034Z,98.70
2019-04-28T04:43:11.883Z,98.70
2019-04-28T04:44:11.861Z,98.50
2019-04-28T04:45:11.858Z,98.33
2019-04-28T04:46:14.268Z,98.80
2019-04-28T04:47:11.871Z,97.88
2019-04-28T04:48:11.916Z,98.39
2019-04-28T04:49:11.817Z,98.39
2019-04-28T04:50:13.248Z,97.88
2019-04-28T04:51:11.784Z,97.98
2019-04-28T04:52:11.912Z,97.88
2019-04-28T04:53:11.783Z,98.19
2019-04-28T04:54:11.758Z,97.77
2019-04-28T04:55:11.854Z,97.77
2019-04-28T04:56:11.731Z,97.77
2019-04-28T04:57:11.814Z,97.77
2019-04-28T04:58:12.233Z,97.88
2019-04-28T04:59:11.801Z,97.98
2019-04-28T05:00:11.771Z,97.26
2019-04-28T05:01:11.661Z,97.63
2019-04-28T05:02:26.644Z,97.47
2019-04-28T05:03:12.739Z,97.36
2019-04-28T05:04:11.645Z,97.47
2019-04-28T05:05:11.882Z,97.36
2019-04-28T05:06:11.727Z,97.67
2019-04-28T05:07:11.620Z,97.67
2019-04-28T05:08:15.549Z,97.73
2019-04-28T05:09:11.576Z,97.36
2019-04-28T05:10:11.661Z,97.63
2019-04-28T05:11:11.584Z,97.11
2019-04-28T05:12:11.564Z,97.01
2019-04-28T05:13:11.577Z,97.52
2019-04-28T05:14:12.162Z,97.52
2019-04-28T05:15:11.528Z,97.73
2019-04-28T05:16:11.596Z,97.01
2019-04-28T05:17:11.508Z,97.31
2019-04-28T05:18:11.513Z,97.42
2019-04-28T05:19:11.525Z,97.01
2019-04-28T05:20:11.552Z,96.80
2019-04-28T05:21:11.468Z,97.01
2019-04-28T05:22:11.567Z,97.73
2019-04-28T05:23:11.764Z,97.42
2019-04-28T05:24:15.934Z,97.31
2019-04-28T05:25:12.414Z,97.11
2019-04-28T05:26:11.492Z,97.63
2019-04-28T05:27:11.408Z,96.80
2019-04-28T05:28:11.539Z,97.42
2019-04-28T05:29:11.375Z,97.31
2019-04-28T05:30:13.960Z,96.66
2019-04-28T05:31:19.955Z,96.96
2019-04-28T05:32:12.348Z,96.66
2019-04-28T05:33:11.453Z,96.14
2019-04-28T05:34:11.675Z,96.03
2019-04-28T05:35:11.432Z,96.66
2019-04-28T05:36:11.779Z,96.14
2019-04-28T05:37:11.293Z,96.03
2019-04-28T05:38:11.337Z,96.24
2019-04-28T05:39:11.342Z,96.03
2019-04-28T05:40:11.367Z,95.83
2019-04-28T05:41:11.261Z,96.55
2019-04-28T05:42:11.533Z,95.42
2019-04-28T05:43:11.387Z,95.31
2019-04-28T05:44:11.261Z,95.27
2019-04-28T05:45:12.330Z,95.37
2019-04-28T05:46:11.214Z,94.49
2019-04-28T05:47:12.235Z,94.65
2019-04-28T05:48:11.387Z,94.85
2019-04-28T05:49:15.292Z,95.27
2019-04-28T05:50:11.160Z,94.92
2019-04-28T05:51:11.340Z,94.60
2019-04-28T05:52:11.954Z,94.60
2019-04-28T05:53:11.242Z,94.09
2019-04-28T05:54:11.149Z,93.79
2019-04-28T05:55:11.153Z,93.79
2019-04-28T05:56:11.103Z,93.48
2019-04-28T05:57:11.163Z,93.37
2019-04-28T05:58:11.096Z,93.37
2019-04-28T05:59:11.126Z,93.06
2019-04-28T06:00:11.062Z,93.27
2019-04-28T06:01:11.123Z,93.16
2019-04-28T06:02:12.276Z,93.16
2019-04-28T06:03:11.102Z,92.65
2019-04-28T06:04:11.303Z,93.27
2019-04-28T06:05:11.044Z,93.23
2019-04-28T06:06:11.116Z,93.43
2019-04-28T06:07:10.988Z,93.23
2019-04-28T06:08:11.034Z,92.82
2019-04-28T06:09:10.982Z,92.71
2019-04-28T06:10:12.534Z,93.08
2019-04-28T06:11:12.049Z,92.57
2019-04-28T06:12:11.146Z,92.25
2019-04-28T06:13:10.928Z,91.44
2019-04-28T06:14:10.978Z,91.02
2019-04-28T06:15:11.950Z,91.68
2019-04-28T06:16:10.998Z,91.64
2019-04-28T06:17:11.011Z,91.23
2019-04-28T06:18:10.893Z,92.21
2019-04-28T06:19:10.862Z,91.80
2019-04-28T06:20:11.794Z,91.29
2019-04-28T06:21:10.925Z,90.98
2019-04-28T06:22:10.812Z,91.29
2019-04-28T06:23:11.054Z,91.39
2019-04-28T06:24:10.806Z,91.70
2019-04-28T06:25:10.892Z,91.29
2019-04-28T06:26:10.791Z,90.47
2019-04-28T06:27:10.795Z,90.26
2019-04-28T06:28:10.754Z,90.26
2019-04-28T06:29:10.849Z,90.06
2019-04-28T06:30:10.988Z,89.64
2019-04-28T06:31:11.802Z,90.06
2019-04-28T06:32:10.759Z,90.26
2019-04-28T06:33:10.798Z,90.26
2019-04-28T06:34:10.697Z,90.32
2019-04-28T06:35:12.815Z,90.22
2019-04-28T06:36:10.667Z,90.22
2019-04-28T06:37:10.726Z,90.01
2019-04-28T06:38:10.666Z,90.12
2019-04-28T06:39:10.737Z,89.76
2019-04-28T06:40:10.656Z,89.91
2019-04-28T06:41:10.751Z,89.76
2019-04-28T06:42:10.604Z,89.70
2019-04-28T06:43:10.774Z,88.95
2019-04-28T06:44:10.604Z,89.15
2019-04-28T06:45:10.837Z,89.15
2019-04-28T06:46:10.580Z,89.09
2019-04-28T06:47:10.697Z,89.70
2019-04-28T06:48:10.562Z,89.50
2019-04-28T06:49:10.700Z,89.81
2019-04-28T06:50:10.620Z,89.70
2019-04-28T06:51:10.729Z,89.87
2019-04-28T06:52:10.534Z,89.56
2019-04-28T06:53:10.620Z,89.66
2019-04-28T06:54:10.479Z,87.30
2019-04-28T06:55:11.712Z,87.61
2019-04-28T06:56:10.514Z,87.92
2019-04-28T06:57:10.642Z,89.31
2019-04-28T06:58:10.663Z,88.70
2019-04-28T06:59:10.469Z,87.92
2019-04-28T07:00:10.567Z,88.33
2019-04-28T07:01:10.433Z,88.08
2019-04-28T07:02:11.384Z,88.02
2019-04-28T07:03:22.465Z,88.49
2019-04-28T07:04:11.386Z,88.59
2019-04-28T07:05:10.592Z,88.90
2019-04-28T07:06:10.536Z,88.49
2019-04-28T07:07:10.503Z,88.24
2019-04-28T07:08:10.411Z,87.32
2019-04-28T07:09:11.467Z,86.91
2019-04-28T07:10:10.328Z,87.32
2019-04-28T07:11:11.631Z,87.73
2019-04-28T07:12:10.431Z,87.32
2019-04-28T07:13:10.389Z,87.02
2019-04-28T07:14:10.488Z,86.60
2019-04-28T07:15:10.313Z,86.81
2019-04-28T07:16:10.562Z,86.50
2019-04-28T07:17:10.299Z,86.30
2019-04-28T07:18:10.483Z,86.05
2019-04-28T07:19:10.267Z,86.30
2019-04-28T07:20:10.411Z,86.25
2019-04-28T07:21:10.239Z,86.36
2019-04-28T07:22:10.402Z,85.33
2019-04-28T07:23:11.430Z,84.41
2019-04-28T07:24:10.256Z,84.41
2019-04-28T07:25:10.421Z,85.13
2019-04-28T07:26:10.337Z,85.09
2019-04-28T07:27:12.397Z,83.90
2019-04-28T07:28:10.169Z,83.18
2019-04-28T07:29:10.190Z,83.69
2019-04-28T07:30:11.079Z,83.69
2019-04-28T07:31:16.929Z,83.90
2019-04-28T07:32:10.214Z,83.28
2019-04-28T07:33:11.185Z,83.28
2019-04-28T07:34:10.180Z,83.18
2019-04-28T07:35:11.351Z,83.39
2019-04-28T07:36:10.095Z,82.77
2019-04-28T07:37:10.161Z,82.63
2019-04-28T07:38:10.220Z,82.53
2019-04-28T07:39:09.994Z,82.28
2019-04-28T07:40:10.231Z,80.74
2019-04-28T07:41:10.029Z,81.87
2019-04-28T07:42:10.005Z,82.28
2019-04-28T07:43:10.141Z,82.28
2019-04-28T07:44:09.953Z,81.77
2019-04-28T07:45:10.167Z,80.74
2019-04-28T07:46:09.963Z,81.87
2019-04-28T07:47:10.111Z,81.77
2019-04-28T07:48:09.995Z,80.54
2019-04-28T07:49:10.095Z,80.33
2019-04-28T07:50:09.880Z,80.40
2019-04-28T07:51:11.095Z,80.60
2019-04-28T07:52:09.891Z,80.95
2019-04-28T07:53:10.015Z,80.91
2019-04-28T07:54:10.767Z,80.60
2019-04-28T07:55:10.004Z,81.22
2019-04-28T07:56:09.828Z,80.67
2019-04-28T07:57:10.028Z,80.36
2019-04-28T07:58:09.790Z,80.83
2019-04-28T07:59:09.973Z,81.24
2019-04-28T08:00:09.866Z,80.33
2019-04-28T08:01:09.767Z,80.43
2019-04-28T08:02:09.975Z,78.75
2019-04-28T08:03:09.782Z,78.55
2019-04-28T08:04:09.898Z,77.73
2019-04-28T08:05:09.735Z,78.72
2019-04-28T08:06:09.891Z,77.49
2019-04-28T08:07:09.894Z,78.20
2019-04-28T08:08:09.801Z,77.49
2019-04-28T08:09:09.923Z,75.68
2019-04-28T08:10:09.668Z,78.49
2019-04-28T08:11:09.792Z,77.83
2019-04-28T08:12:09.645Z,78.31
2019-04-28T08:13:09.778Z,76.91
2019-04-28T08:14:09.629Z,76.88
2019-04-28T08:15:09.804Z,76.33
2019-04-28T08:16:09.625Z,74.59
2019-04-28T08:17:09.752Z,74.93
2019-04-28T08:18:09.579Z,76.33
2019-04-28T08:19:09.787Z,77.04
2019-04-28T08:20:09.725Z,75.82
2019-04-28T08:21:09.552Z,77.49
2019-04-28T08:22:09.704Z,77.19
2019-04-28T08:23:09.525Z,78.20
2019-04-28T08:24:09.687Z,78.11
2019-04-28T08:25:09.539Z,76.26
2019-04-28T08:26:09.540Z,74.63
2019-04-28T08:27:09.500Z,75.99
2019-04-28T08:28:09.633Z,76.23
2019-04-28T08:29:09.472Z,76.54
2019-04-28T08:30:09.711Z,77.63
2019-04-28T08:31:09.443Z,78.89
2019-04-28T08:32:09.461Z,78.75
2019-04-28T08:33:09.603Z,78.65
2019-04-28T08:34:09.429Z,78.04
2019-04-28T08:35:09.574Z,76.47
2019-04-28T08:36:09.388Z,75.55
2019-04-28T08:37:09.585Z,75.34
2019-04-28T08:38:09.418Z,75.85
2019-04-28T08:39:09.495Z,75.59
2019-04-28T08:40:09.376Z,75.27
2019-04-28T08:41:10.375Z,75.34
2019-04-28T08:42:09.318Z,75.24
2019-04-28T08:43:10.457Z,75.34
2019-04-28T08:44:09.354Z,74.93
2019-04-28T08:45:09.431Z,74.63
2019-04-28T08:46:09.280Z,75.71
2019-04-28T08:47:10.458Z,74.80
2019-04-28T08:48:09.266Z,74.46
2019-04-28T08:49:09.402Z,74.87
2019-04-28T08:50:09.245Z,74.63
2019-04-28T08:51:09.378Z,73.60
2019-04-28T08:52:09.222Z,73.54
2019-04-28T08:53:09.375Z,73.64
2019-04-28T08:54:09.259Z,73.98
2019-04-28T08:55:11.333Z,73.98
2019-04-28T08:56:09.708Z,73.84
2019-04-28T08:57:09.309Z,75.17
2019-04-28T08:58:09.151Z,75.48
2019-04-28T08:59:09.281Z,74.63
2019-04-28T09:00:09.132Z,74.52
2019-04-28T09:01:10.254Z,73.88
2019-04-28T09:02:09.106Z,72.58
2019-04-28T09:03:10.258Z,72.07
2019-04-28T09:04:15.629Z,72.07
2019-04-28T09:05:10.443Z,70.34
2019-04-28T09:06:10.059Z,69.01
2019-04-28T09:07:09.177Z,69.52
2019-04-28T09:08:09.053Z,70.23
2019-04-28T09:09:09.233Z,71.02
2019-04-28T09:10:09.015Z,71.33
2019-04-28T09:11:09.186Z,72.31
2019-04-28T09:12:08.990Z,72.72
2019-04-28T09:13:09.092Z,70.95
2019-04-28T09:14:09.171Z,69.05
2019-04-28T09:15:09.157Z,69.05
2019-04-28T09:16:09.132Z,67.01
2019-04-28T09:17:08.948Z,67.24
2019-04-28T09:19:19.152Z,69.08
2019-04-28T09:20:17.900Z,67.48
2019-04-28T09:21:18.064Z,67.30
2019-04-28T09:22:17.889Z,68.19
2019-04-28T09:23:19.032Z,66.77
2019-04-28T09:24:17.891Z,67.07
2019-04-28T09:25:19.014Z,68.16
2019-04-28T09:26:19.020Z,67.14
2019-04-28T09:27:17.820Z,67.21
2019-04-28T09:28:24.756Z,66.80
2019-04-28T09:29:17.938Z,67.18
2019-04-28T09:30:18.944Z,68.61
2019-04-28T09:31:18.822Z,64.22
2019-04-28T09:32:17.769Z,64.12
2019-04-28T09:33:17.749Z,66.16
2019-04-28T09:34:27.780Z,64.84
2019-04-28T09:35:18.764Z,65.25
2019-04-28T09:36:17.873Z,65.75
2019-04-28T09:37:17.728Z,65.14
2019-04-28T09:38:17.728Z,64.25
2019-04-28T09:39:17.732Z,63.64
2019-04-28T09:40:18.814Z,63.78
2019-04-28T09:41:17.716Z,64.87
2019-04-28T09:42:19.869Z,65.28
2019-04-28T09:43:17.670Z,65.14
2019-04-28T09:44:18.076Z,64.63
2019-04-28T09:45:17.653Z,63.61
2019-04-28T09:46:17.744Z,64.32
2019-04-28T09:47:17.697Z,64.90
2019-04-28T09:48:17.738Z,62.46
2019-04-28T09:49:17.597Z,62.87
2019-04-28T09:50:17.642Z,63.65
2019-04-28T09:51:17.576Z,63.35
2019-04-28T09:52:17.684Z,63.53
2019-04-28T09:53:17.541Z,60.91
2019-04-28T09:54:17.715Z,60.30
2019-04-28T09:55:17.597Z,62.43
2019-04-28T09:56:17.504Z,63.76
2019-04-28T09:57:17.521Z,65.39
2019-04-28T09:58:17.614Z,66.91
2019-04-28T09:59:17.490Z,65.69
2019-04-28T10:00:18.719Z,66.88
2019-04-28T10:01:17.487Z,66.17
2019-04-28T10:02:17.511Z,65.77
2019-04-28T10:03:17.455Z,65.16
2019-04-28T10:04:17.537Z,65.49
2019-04-28T10:05:17.463Z,63.79
2019-04-28T10:06:17.626Z,65.52
2019-04-28T10:07:17.415Z,65.31
2019-04-28T10:08:17.397Z,66.67
2019-04-28T10:09:17.374Z,68.07
2019-04-28T10:10:17.538Z,67.38
2019-04-28T10:11:29.692Z,67.41
2019-04-28T10:12:26.924Z,67.45
2019-04-28T10:13:18.346Z,67.21
2019-04-28T10:14:17.590Z,67.32
2019-04-28T10:15:18.397Z,68.88
2019-04-28T10:16:17.435Z,68.13
2019-04-28T10:17:17.309Z,68.84
2019-04-28T10:18:17.434Z,68.64
2019-04-28T10:19:17.279Z,67.41
2019-04-28T10:20:17.422Z,68.13
2019-04-28T10:21:17.253Z,66.83
2019-04-28T10:22:18.384Z,66.74
2019-04-28T10:23:17.255Z,66.25
2019-04-28T10:24:18.401Z,67.65
2019-04-28T10:25:17.256Z,67.04
2019-04-28T10:26:18.333Z,69.18
2019-04-28T10:27:17.211Z,67.38
2019-04-28T10:28:18.315Z,68.40
2019-04-28T10:29:17.182Z,67.58
2019-04-28T10:30:17.441Z,69.24
2019-04-28T10:31:17.146Z,70.75
2019-04-28T10:32:17.364Z,71.62
2019-04-28T10:33:17.136Z,72.11
2019-04-28T10:34:17.227Z,73.74
2019-04-28T10:35:17.158Z,73.78
2019-04-28T10:36:18.323Z,75.24
2019-04-28T10:37:17.114Z,73.74
2019-04-28T10:38:17.261Z,74.66
2019-04-28T10:39:17.169Z,76.75
2019-04-28T10:40:17.075Z,74.77
2019-04-28T10:41:18.091Z,76.14
2019-04-28T10:42:17.041Z,75.73
2019-04-28T10:43:17.240Z,75.11
2019-04-28T10:44:17.018Z,75.04
2019-04-28T10:45:17.020Z,74.74
2019-04-28T10:46:17.019Z,75.90
2019-04-28T10:47:19.168Z,77.20
2019-04-28T10:48:16.985Z,79.25
2019-04-28T10:49:18.174Z,82.47
2019-04-28T10:50:16.966Z,82.57
2019-04-28T10:51:16.986Z,84.67
2019-04-28T10:52:16.935Z,86.32
2019-04-28T10:53:17.068Z,87.49
2019-04-28T10:54:16.930Z,88.37
2019-04-28T10:55:17.074Z,89.09
2019-04-28T10:56:16.931Z,90.01
2019-04-28T10:57:18.003Z,89.97
2019-04-28T10:58:16.888Z,90.38
2019-04-28T10:59:23.541Z,90.44
2019-04-28T11:00:16.867Z,91.12
2019-04-28T11:01:16.973Z,90.36
2019-04-28T11:02:16.825Z,87.76
2019-04-28T11:03:18.963Z,85.77
2019-04-28T11:04:18.987Z,87.88
2019-04-28T11:05:16.816Z,87.02
2019-04-28T11:06:17.018Z,83.46
2019-04-28T11:07:16.774Z,80.52
2019-04-28T11:08:16.834Z,82.08
2019-04-28T11:09:29.809Z,77.86
2019-04-28T11:10:17.737Z,77.68
2019-04-28T11:11:16.950Z,75.10
2019-04-28T11:12:16.718Z,76.56
2019-04-28T11:13:17.808Z,70.31
2019-04-28T11:14:16.698Z,70.48
2019-04-28T11:15:18.842Z,65.16
2019-04-28T11:16:16.678Z,67.80
2019-04-28T11:17:16.859Z,69.94
2019-04-28T11:18:16.675Z,64.25
2019-04-28T11:19:17.741Z,65.84
2019-04-28T11:20:16.641Z,63.98
2019-04-28T11:21:16.744Z,61.44
2019-04-28T11:22:16.697Z,60.79
2019-04-28T11:23:16.605Z,69.74
2019-04-28T11:24:16.590Z,71.53
2019-04-28T11:25:16.760Z,70.59
2019-04-28T11:26:16.629Z,68.35
2019-04-28T11:27:16.735Z,65.88
2019-04-28T11:28:16.554Z,67.17
2019-04-28T11:29:16.541Z,67.38
2019-04-28T11:30:16.561Z,62.30
2019-04-28T11:31:16.710Z,64.94
2019-04-28T11:32:16.544Z,66.97
2019-04-28T11:33:16.603Z,62.71
2019-04-28T11:34:16.490Z,59.05
2019-04-28T11:35:21.755Z,65.21
2019-04-28T11:36:17.453Z,65.72
2019-04-28T11:37:16.615Z,65.18
2019-04-28T11:38:16.446Z,62.95
2019-04-28T11:39:16.569Z,62.14
2019-04-28T11:40:16.435Z,63.35
2019-04-28T11:41:16.442Z,58.49
2019-04-28T11:42:16.552Z,59.99
2019-04-28T11:43:16.397Z,56.64
2019-04-28T11:44:18.537Z,59.58
2019-04-28T11:45:16.359Z,59.95
2019-04-28T11:46:16.478Z,59.63
2019-04-28T11:47:16.541Z,58.41
2019-04-28T11:48:16.505Z,56.41
2019-04-28T11:49:16.343Z,56.34
2019-04-28T11:50:16.467Z,57.15
2019-04-28T11:51:16.316Z,55.93
2019-04-28T11:52:16.421Z,57.15
2019-04-28T11:53:17.562Z,56.08
2019-04-28T11:54:16.281Z,57.87
2019-04-28T11:55:16.398Z,58.36
2019-04-28T11:56:16.495Z,51.86
2019-04-28T11:57:16.355Z,51.53
2019-04-28T11:58:16.230Z,52.84
2019-04-28T11:59:16.242Z,53.63
2019-04-28T12:00:16.347Z,53.09
2019-04-28T12:01:16.214Z,53.00
2019-04-28T12:02:16.288Z,51.78
2019-04-28T12:03:16.920Z,53.60
2019-04-28T12:04:16.328Z,50.78
2019-04-28T12:05:16.268Z,53.20
2019-04-28T12:06:16.160Z,49.69
2019-04-28T12:07:16.223Z,54.08
2019-04-28T12:08:16.152Z,54.71
2019-04-28T12:09:17.287Z,54.71
2019-04-28T12:10:16.126Z,53.85
2019-04-28T12:11:16.088Z,54.18
2019-04-28T12:12:16.078Z,49.39
2019-04-28T12:13:17.301Z,49.16
2019-04-28T12:14:16.082Z,46.04
2019-04-28T12:15:16.199Z,49.24
2019-04-28T12:16:16.059Z,50.70
2019-04-28T12:17:16.152Z,50.20
2019-04-28T12:18:16.148Z,49.28
2019-04-28T12:19:16.018Z,52.87
2019-04-28T12:20:16.122Z,52.41
2019-04-28T12:21:15.994Z,53.37
2019-04-28T12:22:17.137Z,55.12
2019-04-28T12:23:17.098Z,54.86
2019-04-28T12:24:15.951Z,56.92
2019-04-28T12:25:16.045Z,59.59
2019-04-28T12:26:15.931Z,59.11
2019-04-28T12:27:16.047Z,58.63
2019-04-28T12:28:15.967Z,59.03
2019-04-28T12:29:15.928Z,56.85
2019-04-28T12:30:15.960Z,59.01
2019-04-28T12:31:15.892Z,59.14
2019-04-28T12:32:16.003Z,59.78
2019-04-28T12:33:15.926Z,60.68
2019-04-28T12:34:16.955Z,60.73
2019-04-28T12:35:18.372Z,62.70
2019-04-28T12:36:15.900Z,63.79
2019-04-28T12:37:15.824Z,66.00
2019-04-28T12:38:15.987Z,63.58
2019-04-28T12:39:15.800Z,65.22
2019-04-28T12:40:15.986Z,67.43
2019-04-28T12:41:15.773Z,67.12
2019-04-28T12:42:15.852Z,66.17
2019-04-28T12:43:15.780Z,64.44
2019-04-28T12:44:16.894Z,65.25
2019-04-28T12:45:15.747Z,63.45
2019-04-28T12:46:16.801Z,63.32
2019-04-28T12:47:15.726Z,64.87
2019-04-28T12:48:15.846Z,64.17
2019-04-28T12:49:15.900Z,64.98
2019-04-28T12:50:15.798Z,65.97
2019-04-28T12:51:15.669Z,63.76
2019-04-28T12:52:15.811Z,64.06
2019-04-28T12:53:15.806Z,64.57